Terminal Aerodrome Forecast
Issued by NWS

Home | Current Version | Previous Version | Text Only | Print | Product List | Glossary Off
Versions: 1 2 3 4 5 6 7 8 9 10 11 12 13 14 15 16 17 18 19 20 21

000
FTUS42 KMHX 171200 AAA
TAFOAJ
TAF AMD
KOAJ 171206Z 1712/1812 03010G20KT P6SM SKC
     FM172200 05010KT P6SM BKN035
     FM180900 02007KT P6SM SCT010
      AMD LTD TO CLD VIS AND WIND=

USA.gov is the U.S. government's official web portal to all federal, state and local government web resources and services.